This is the latest recevied weather packets stored in our database for station/object JF1AJE-13. If no packets are shown the sender has not sent any weather packets the latest 1 day(s).
| Time | Temp. | Humidity | Pressure | Rain* | Wind** | Luminosity | Snow |
|---|---|---|---|---|---|---|---|
| 1778034353 | 20.56° C | 52% | 1016.6 hPa | 0 mm | 0 m/s | - | - |
| 1778033151 | 20° C | 52% | 1016.8 hPa | 0 mm | 0 m/s | - | - |
| 1778031952 | 19.44° C | 52% | 1017.1 hPa | 0 mm | 0 m/s | - | - |
| 1778030754 | 18.33° C | 52% | 1017.8 hPa | 0 mm | 0 m/s | - | - |
| 1778029553 | 17.78° C | 51% | 1017.9 hPa | 0 mm | 0 m/s | - | - |
| 1778028351 | 17.22° C | 53% | 1018 hPa | 0 mm | 0 m/s | - | - |
| 1778025953 | 16.11° C | 54% | 1018.5 hPa | 0 mm | 0 m/s | - | - |
| 1778024751 | 16.11° C | 54% | 1018.5 hPa | 0 mm | 0 m/s | - | - |
| 1778023552 | 16.11° C | 54% | 1018.6 hPa | 0 mm | 0 m/s | - | - |
| 1778022353 | 15.56° C | 57% | 1018.5 hPa | 0 mm | 0 m/s | - | - |
| 1778021152 | 15° C | 59% | 1018.7 hPa | 0 mm | 0 m/s | - | - |
| 1778018751 | 13.89° C | 60% | 1018.8 hPa | 0 mm | 0 m/s | - | - |
| 1778017553 | 13.89° C | 62% | 1018.6 hPa | 0 mm | 0 m/s | - | - |
| 1778016352 | 13.33° C | 65% | 1018.7 hPa | 0 mm | 0 m/s | - | - |
| 1778015153 | 12.78° C | 69% | 1018.5 hPa | 0 mm | 0 m/s | - | - |
| 1778013952 | 12.78° C | 69% | 1018.7 hPa | 0 mm | 0 m/s | - | - |
| 1778012752 | 12.22° C | 70% | 1018.6 hPa | 0 mm | 0 m/s | - | - |
| 1778011551 | 12.22° C | 70% | 1018.4 hPa | 0 mm | 0 m/s | - | - |
| 1778010352 | 12.22° C | 69% | 1018.4 hPa | 0 mm | 0 m/s | - | - |
| 1778009151 | 12.22° C | 68% | 1018.2 hPa | 0 mm | 0 m/s | - | - |
| 1778007952 | 12.22° C | 67% | 1017.9 hPa | 0 mm | 0 m/s | - | - |
| 1778006751 | 12.22° C | 66% | 1017.9 hPa | 0 mm | 0 m/s | - | - |
| 1778005552 | 12.22° C | 65% | 1018 hPa | 0 mm | 0 m/s | - | - |
| 1778004351 | 12.78° C | 64% | 1017.9 hPa | 0 mm | 0 m/s | - | - |
| 1778003151 | 12.78° C | 63% | 1017.8 hPa | 0 mm | 0 m/s | - | - |
* Rain latest hour (hover to see other rain measurements)
** Current wind speed in m/s (hover to see current wind gust speed)